sensor_id;sensor_type;location;lat;lon;timestamp;P1;durP1;ratioP1;P2;durP2;ratioP2
4353;SDS011;11018;51.258;6.806;2023-07-29T00:00:48;9.60;;;6.00;;
4353;SDS011;11018;51.258;6.806;2023-07-29T00:03:13;7.55;;;5.50;;
4353;SDS011;11018;51.258;6.806;2023-07-29T00:05:40;7.03;;;5.30;;
4353;SDS011;11018;51.258;6.806;2023-07-29T00:08:06;6.57;;;5.18;;
4353;SDS011;11018;51.258;6.806;2023-07-29T00:10:32;6.70;;;5.55;;
4353;SDS011;11018;51.258;6.806;2023-07-29T00:13:00;7.03;;;5.30;;
4353;SDS011;11018;51.258;6.806;2023-07-29T00:15:25;6.80;;;5.07;;
4353;SDS011;11018;51.258;6.806;2023-07-29T00:17:51;5.03;;;4.53;;
4353;SDS011;11018;51.258;6.806;2023-07-29T00:20:17;8.27;;;5.60;;
4353;SDS011;11018;51.258;6.806;2023-07-29T00:22:44;6.28;;;4.88;;
4353;SDS011;11018;51.258;6.806;2023-07-29T00:25:09;5.18;;;4.68;;
4353;SDS011;11018;51.258;6.806;2023-07-29T00:27:35;9.00;;;5.27;;
4353;SDS011;11018;51.258;6.806;2023-07-29T00:30:00;8.25;;;5.03;;
4353;SDS011;11018;51.258;6.806;2023-07-29T00:32:29;5.63;;;5.10;;
4353;SDS011;11018;51.258;6.806;2023-07-29T00:34:56;7.78;;;5.72;;
4353;SDS011;11018;51.258;6.806;2023-07-29T00:37:21;10.40;;;5.55;;
4353;SDS011;11018;51.258;6.806;2023-07-29T00:39:47;6.03;;;5.20;;
4353;SDS011;11018;51.258;6.806;2023-07-29T00:42:12;6.40;;;5.80;;
4353;SDS011;11018;51.258;6.806;2023-07-29T00:44:38;6.15;;;5.55;;
4353;SDS011;11018;51.258;6.806;2023-07-29T00:47:04;7.37;;;6.00;;
4353;SDS011;11018;51.258;6.806;2023-07-29T00:49:30;7.35;;;6.10;;
4353;SDS011;11018;51.258;6.806;2023-07-29T00:51:57;10.88;;;7.50;;
4353;SDS011;11018;51.258;6.806;2023-07-29T00:54:23;9.70;;;6.60;;
4353;SDS011;11018;51.258;6.806;2023-07-29T00:56:48;7.10;;;6.40;;
4353;SDS011;11018;51.258;6.806;2023-07-29T00:59:14;11.65;;;6.50;;
4353;SDS011;11018;51.258;6.806;2023-07-29T01:01:40;7.55;;;6.75;;
4353;SDS011;11018;51.258;6.806;2023-07-29T01:04:06;12.05;;;7.30;;
4353;SDS011;11018;51.258;6.806;2023-07-29T01:09:31;9.57;;;6.70;;
4353;SDS011;11018;51.258;6.806;2023-07-29T01:12:22;7.32;;;6.60;;
4353;SDS011;11018;51.258;6.806;2023-07-29T01:15:04;10.10;;;7.30;;
4353;SDS011;11018;51.258;6.806;2023-07-29T01:17:49;11.40;;;7.75;;
4353;SDS011;11018;51.258;6.806;2023-07-29T01:20:19;12.45;;;9.70;;
4353;SDS011;11018;51.258;6.806;2023-07-29T01:22:45;16.48;;;11.82;;
4353;SDS011;11018;51.258;6.806;2023-07-29T01:25:12;12.87;;;8.73;;
4353;SDS011;11018;51.258;6.806;2023-07-29T01:27:38;10.05;;;7.80;;
4353;SDS011;11018;51.258;6.806;2023-07-29T01:30:05;12.45;;;7.43;;
4353;SDS011;11018;51.258;6.806;2023-07-29T01:32:43;10.05;;;7.28;;
4353;SDS011;11018;51.258;6.806;2023-07-29T01:37:51;10.02;;;7.40;;
4353;SDS011;11018;51.258;6.806;2023-07-29T01:40:19;9.93;;;7.40;;
4353;SDS011;11018;51.258;6.806;2023-07-29T01:42:48;11.18;;;6.95;;
4353;SDS011;11018;51.258;6.806;2023-07-29T01:45:14;10.88;;;6.85;;
4353;SDS011;11018;51.258;6.806;2023-07-29T01:47:40;9.30;;;6.55;;
4353;SDS011;11018;51.258;6.806;2023-07-29T01:50:06;7.32;;;6.25;;
4353;SDS011;11018;51.258;6.806;2023-07-29T01:52:33;10.48;;;6.97;;
4353;SDS011;11018;51.258;6.806;2023-07-29T01:54:58;7.00;;;6.30;;
4353;SDS011;11018;51.258;6.806;2023-07-29T01:57:24;10.13;;;7.10;;
4353;SDS011;11018;51.258;6.806;2023-07-29T01:59:49;11.50;;;6.73;;
4353;SDS011;11018;51.258;6.806;2023-07-29T02:02:15;10.60;;;6.60;;
4353;SDS011;11018;51.258;6.806;2023-07-29T02:04:40;9.15;;;6.47;;
4353;SDS011;11018;51.258;6.806;2023-07-29T02:07:06;8.32;;;6.38;;
4353;SDS011;11018;51.258;6.806;2023-07-29T02:09:32;12.47;;;6.07;;
4353;SDS011;11018;51.258;6.806;2023-07-29T02:11:57;7.70;;;5.97;;
4353;SDS011;11018;51.258;6.806;2023-07-29T02:14:23;9.20;;;6.45;;
4353;SDS011;11018;51.258;6.806;2023-07-29T02:16:48;8.27;;;6.10;;
4353;SDS011;11018;51.258;6.806;2023-07-29T02:19:15;7.97;;;6.67;;
4353;SDS011;11018;51.258;6.806;2023-07-29T02:21:40;8.30;;;6.00;;
4353;SDS011;11018;51.258;6.806;2023-07-29T02:24:06;8.30;;;5.78;;
4353;SDS011;11018;51.258;6.806;2023-07-29T02:26:31;7.10;;;5.70;;
4353;SDS011;11018;51.258;6.806;2023-07-29T02:28:57;9.17;;;5.90;;
4353;SDS011;11018;51.258;6.806;2023-07-29T02:31:23;8.52;;;6.57;;
4353;SDS011;11018;51.258;6.806;2023-07-29T02:33:50;12.25;;;6.47;;
4353;SDS011;11018;51.258;6.806;2023-07-29T02:36:16;6.35;;;5.72;;
4353;SDS011;11018;51.258;6.806;2023-07-29T02:38:42;6.95;;;6.25;;
4353;SDS011;11018;51.258;6.806;2023-07-29T02:41:09;8.45;;;7.00;;
4353;SDS011;11018;51.258;6.806;2023-07-29T02:43:35;7.53;;;6.43;;
4353;SDS011;11018;51.258;6.806;2023-07-29T02:46:02;9.98;;;6.30;;
4353;SDS011;11018;51.258;6.806;2023-07-29T02:48:27;6.43;;;5.80;;
4353;SDS011;11018;51.258;6.806;2023-07-29T02:50:53;8.25;;;6.38;;
4353;SDS011;11018;51.258;6.806;2023-07-29T02:53:19;9.30;;;6.15;;
4353;SDS011;11018;51.258;6.806;2023-07-29T02:55:45;8.25;;;6.20;;
4353;SDS011;11018;51.258;6.806;2023-07-29T02:58:10;7.03;;;5.90;;
4353;SDS011;11018;51.258;6.806;2023-07-29T03:00:36;7.27;;;5.90;;
4353;SDS011;11018;51.258;6.806;2023-07-29T03:03:01;8.43;;;6.30;;
4353;SDS011;11018;51.258;6.806;2023-07-29T03:05:27;9.83;;;5.90;;
4353;SDS011;11018;51.258;6.806;2023-07-29T03:07:53;8.83;;;5.97;;
4353;SDS011;11018;51.258;6.806;2023-07-29T03:10:19;6.30;;;5.70;;
4353;SDS011;11018;51.258;6.806;2023-07-29T03:12:45;5.80;;;5.13;;
4353;SDS011;11018;51.258;6.806;2023-07-29T03:15:11;5.57;;;5.07;;
4353;SDS011;11018;51.258;6.806;2023-07-29T03:17:37;8.67;;;4.90;;
4353;SDS011;11018;51.258;6.806;2023-07-29T03:20:02;9.60;;;4.63;;
4353;SDS011;11018;51.258;6.806;2023-07-29T03:22:28;4.95;;;4.45;;
4353;SDS011;11018;51.258;6.806;2023-07-29T03:24:54;5.05;;;4.40;;
4353;SDS011;11018;51.258;6.806;2023-07-29T03:27:19;5.50;;;4.70;;
4353;SDS011;11018;51.258;6.806;2023-07-29T03:29:45;8.10;;;4.60;;
4353;SDS011;11018;51.258;6.806;2023-07-29T03:32:11;8.07;;;4.35;;
4353;SDS011;11018;51.258;6.806;2023-07-29T03:34:37;5.25;;;4.75;;
4353;SDS011;11018;51.258;6.806;2023-07-29T03:37:03;6.47;;;4.65;;
4353;SDS011;11018;51.258;6.806;2023-07-29T03:39:29;7.87;;;4.73;;
4353;SDS011;11018;51.258;6.806;2023-07-29T03:41:54;5.00;;;4.00;;
4353;SDS011;11018;51.258;6.806;2023-07-29T03:44:20;8.37;;;4.60;;
4353;SDS011;11018;51.258;6.806;2023-07-29T03:46:45;6.80;;;4.37;;
4353;SDS011;11018;51.258;6.806;2023-07-29T03:49:11;6.10;;;4.65;;
4353;SDS011;11018;51.258;6.806;2023-07-29T03:51:36;5.40;;;4.63;;
4353;SDS011;11018;51.258;6.806;2023-07-29T03:54:02;6.10;;;4.77;;
4353;SDS011;11018;51.258;6.806;2023-07-29T03:56:27;8.25;;;4.45;;
4353;SDS011;11018;51.258;6.806;2023-07-29T03:58:53;6.10;;;4.70;;
4353;SDS011;11018;51.258;6.806;2023-07-29T04:01:26;5.97;;;4.55;;
4353;SDS011;11018;51.258;6.806;2023-07-29T04:03:52;9.83;;;5.20;;
4353;SDS011;11018;51.258;6.806;2023-07-29T04:06:17;6.63;;;4.80;;
4353;SDS011;11018;51.258;6.806;2023-07-29T04:08:43;11.40;;;4.60;;
4353;SDS011;11018;51.258;6.806;2023-07-29T04:11:08;9.53;;;5.23;;
4353;SDS011;11018;51.258;6.806;2023-07-29T04:13:34;6.43;;;4.80;;
4353;SDS011;11018;51.258;6.806;2023-07-29T04:16:02;6.90;;;4.80;;
4353;SDS011;11018;51.258;6.806;2023-07-29T04:18:29;5.97;;;4.88;;
4353;SDS011;11018;51.258;6.806;2023-07-29T04:20:54;7.87;;;5.30;;
4353;SDS011;11018;51.258;6.806;2023-07-29T04:23:20;7.80;;;5.15;;
4353;SDS011;11018;51.258;6.806;2023-07-29T04:25:45;6.05;;;4.80;;
4353;SDS011;11018;51.258;6.806;2023-07-29T04:28:11;5.27;;;4.70;;
4353;SDS011;11018;51.258;6.806;2023-07-29T04:30:36;7.55;;;4.70;;
4353;SDS011;11018;51.258;6.806;2023-07-29T04:33:02;9.15;;;4.93;;
4353;SDS011;11018;51.258;6.806;2023-07-29T04:35:28;5.47;;;4.93;;
4353;SDS011;11018;51.258;6.806;2023-07-29T04:37:54;9.10;;;4.90;;
4353;SDS011;11018;51.258;6.806;2023-07-29T04:40:19;5.03;;;4.53;;
4353;SDS011;11018;51.258;6.806;2023-07-29T04:42:45;5.45;;;4.50;;
4353;SDS011;11018;51.258;6.806;2023-07-29T04:45:10;8.20;;;4.72;;
4353;SDS011;11018;51.258;6.806;2023-07-29T04:47:36;14.48;;;5.10;;
4353;SDS011;11018;51.258;6.806;2023-07-29T04:50:02;6.00;;;4.63;;
4353;SDS011;11018;51.258;6.806;2023-07-29T04:52:27;10.40;;;4.73;;
4353;SDS011;11018;51.258;6.806;2023-07-29T04:54:53;10.40;;;4.93;;
4353;SDS011;11018;51.258;6.806;2023-07-29T04:57:18;10.60;;;4.53;;
4353;SDS011;11018;51.258;6.806;2023-07-29T04:59:44;6.40;;;4.60;;
4353;SDS011;11018;51.258;6.806;2023-07-29T05:02:10;5.55;;;4.65;;
4353;SDS011;11018;51.258;6.806;2023-07-29T05:04:35;7.50;;;5.00;;
4353;SDS011;11018;51.258;6.806;2023-07-29T05:07:01;5.30;;;4.80;;
4353;SDS011;11018;51.258;6.806;2023-07-29T05:09:26;8.57;;;5.20;;
4353;SDS011;11018;51.258;6.806;2023-07-29T05:11:52;7.90;;;5.20;;
4353;SDS011;11018;51.258;6.806;2023-07-29T05:14:17;7.00;;;5.35;;
4353;SDS011;11018;51.258;6.806;2023-07-29T05:16:43;6.07;;;4.80;;
4353;SDS011;11018;51.258;6.806;2023-07-29T05:19:09;9.15;;;5.10;;
4353;SDS011;11018;51.258;6.806;2023-07-29T05:21:35;5.57;;;4.70;;
4353;SDS011;11018;51.258;6.806;2023-07-29T05:24:00;7.27;;;5.10;;
4353;SDS011;11018;51.258;6.806;2023-07-29T05:26:26;12.07;;;5.38;;
4353;SDS011;11018;51.258;6.806;2023-07-29T05:28:51;6.17;;;4.80;;
4353;SDS011;11018;51.258;6.806;2023-07-29T05:31:17;7.40;;;5.23;;
4353;SDS011;11018;51.258;6.806;2023-07-29T05:33:43;7.13;;;5.10;;
4353;SDS011;11018;51.258;6.806;2023-07-29T05:36:08;7.60;;;5.93;;
4353;SDS011;11018;51.258;6.806;2023-07-29T05:38:34;5.90;;;5.00;;
4353;SDS011;11018;51.258;6.806;2023-07-29T05:40:59;7.90;;;5.65;;
4353;SDS011;11018;51.258;6.806;2023-07-29T05:43:25;12.40;;;5.15;;
4353;SDS011;11018;51.258;6.806;2023-07-29T05:45:51;7.90;;;5.10;;
4353;SDS011;11018;51.258;6.806;2023-07-29T05:48:17;8.65;;;5.40;;
4353;SDS011;11018;51.258;6.806;2023-07-29T05:50:44;7.78;;;5.38;;
4353;SDS011;11018;51.258;6.806;2023-07-29T05:53:09;10.20;;;5.00;;
4353;SDS011;11018;51.258;6.806;2023-07-29T05:55:35;7.65;;;4.97;;
4353;SDS011;11018;51.258;6.806;2023-07-29T05:58:00;8.80;;;4.90;;
4353;SDS011;11018;51.258;6.806;2023-07-29T06:00:26;6.55;;;4.40;;
4353;SDS011;11018;51.258;6.806;2023-07-29T06:02:51;8.30;;;4.47;;
4353;SDS011;11018;51.258;6.806;2023-07-29T06:05:17;6.30;;;4.07;;
4353;SDS011;11018;51.258;6.806;2023-07-29T06:07:42;5.93;;;3.70;;
4353;SDS011;11018;51.258;6.806;2023-07-29T06:10:10;6.90;;;3.33;;
4353;SDS011;11018;51.258;6.806;2023-07-29T06:12:38;4.72;;;3.70;;
4353;SDS011;11018;51.258;6.806;2023-07-29T06:15:03;9.13;;;3.60;;
4353;SDS011;11018;51.258;6.806;2023-07-29T06:17:30;4.65;;;3.38;;
4353;SDS011;11018;51.258;6.806;2023-07-29T06:19:55;5.20;;;3.30;;
4353;SDS011;11018;51.258;6.806;2023-07-29T06:22:21;3.80;;;3.30;;
4353;SDS011;11018;51.258;6.806;2023-07-29T06:24:46;4.23;;;3.27;;
4353;SDS011;11018;51.258;6.806;2023-07-29T06:27:12;6.90;;;4.18;;
4353;SDS011;11018;51.258;6.806;2023-07-29T06:29:37;9.30;;;4.00;;
4353;SDS011;11018;51.258;6.806;2023-07-29T06:32:03;8.45;;;3.60;;
4353;SDS011;11018;51.258;6.806;2023-07-29T06:34:29;4.30;;;3.30;;
4353;SDS011;11018;51.258;6.806;2023-07-29T06:36:54;5.10;;;3.15;;
4353;SDS011;11018;51.258;6.806;2023-07-29T06:39:20;5.47;;;3.10;;
4353;SDS011;11018;51.258;6.806;2023-07-29T06:41:46;4.07;;;2.70;;
4353;SDS011;11018;51.258;6.806;2023-07-29T06:44:11;2.70;;;2.50;;
4353;SDS011;11018;51.258;6.806;2023-07-29T06:46:37;4.60;;;2.30;;
4353;SDS011;11018;51.258;6.806;2023-07-29T06:49:02;4.75;;;2.47;;
4353;SDS011;11018;51.258;6.806;2023-07-29T06:51:28;3.00;;;2.10;;
4353;SDS011;11018;51.258;6.806;2023-07-29T06:53:59;3.60;;;2.20;;
4353;SDS011;11018;51.258;6.806;2023-07-29T06:56:25;3.47;;;1.93;;
4353;SDS011;11018;51.258;6.806;2023-07-29T06:58:50;4.00;;;2.47;;
4353;SDS011;11018;51.258;6.806;2023-07-29T07:01:16;3.22;;;2.00;;
4353;SDS011;11018;51.258;6.806;2023-07-29T07:03:42;2.60;;;1.90;;
4353;SDS011;11018;51.258;6.806;2023-07-29T07:06:07;2.20;;;2.00;;
4353;SDS011;11018;51.258;6.806;2023-07-29T07:08:33;2.30;;;2.00;;
4353;SDS011;11018;51.258;6.806;2023-07-29T07:10:59;2.78;;;1.90;;
4353;SDS011;11018;51.258;6.806;2023-07-29T07:13:24;3.30;;;1.90;;
4353;SDS011;11018;51.258;6.806;2023-07-29T07:15:50;2.20;;;2.00;;
4353;SDS011;11018;51.258;6.806;2023-07-29T07:18:15;2.70;;;2.50;;
4353;SDS011;11018;51.258;6.806;2023-07-29T07:20:41;3.13;;;2.27;;
4353;SDS011;11018;51.258;6.806;2023-07-29T07:23:06;3.80;;;2.00;;
4353;SDS011;11018;51.258;6.806;2023-07-29T07:25:36;6.05;;;2.40;;
4353;SDS011;11018;51.258;6.806;2023-07-29T07:28:01;2.47;;;2.20;;
4353;SDS011;11018;51.258;6.806;2023-07-29T07:30:27;3.65;;;1.92;;
4353;SDS011;11018;51.258;6.806;2023-07-29T07:32:53;2.10;;;2.00;;
4353;SDS011;11018;51.258;6.806;2023-07-29T07:35:18;6.93;;;2.10;;
4353;SDS011;11018;51.258;6.806;2023-07-29T07:37:44;3.30;;;1.90;;
4353;SDS011;11018;51.258;6.806;2023-07-29T07:40:10;3.00;;;2.60;;
4353;SDS011;11018;51.258;6.806;2023-07-29T07:42:36;2.70;;;2.00;;
4353;SDS011;11018;51.258;6.806;2023-07-29T07:45:01;4.07;;;2.25;;
4353;SDS011;11018;51.258;6.806;2023-07-29T07:47:27;3.25;;;2.47;;
4353;SDS011;11018;51.258;6.806;2023-07-29T07:49:53;3.30;;;2.47;;
4353;SDS011;11018;51.258;6.806;2023-07-29T07:52:18;2.28;;;2.00;;
4353;SDS011;11018;51.258;6.806;2023-07-29T07:54:51;2.30;;;2.10;;
4353;SDS011;11018;51.258;6.806;2023-07-29T07:57:19;4.05;;;2.20;;
4353;SDS011;11018;51.258;6.806;2023-07-29T07:59:46;2.65;;;2.08;;
4353;SDS011;11018;51.258;6.806;2023-07-29T08:02:11;2.10;;;1.73;;
4353;SDS011;11018;51.258;6.806;2023-07-29T08:04:37;2.13;;;1.55;;
4353;SDS011;11018;51.258;6.806;2023-07-29T08:07:02;2.90;;;1.80;;
4353;SDS011;11018;51.258;6.806;2023-07-29T08:09:28;4.10;;;2.22;;
4353;SDS011;11018;51.258;6.806;2023-07-29T08:11:57;3.25;;;1.70;;
4353;SDS011;11018;51.258;6.806;2023-07-29T08:14:22;3.20;;;1.60;;
4353;SDS011;11018;51.258;6.806;2023-07-29T08:16:48;4.43;;;1.92;;
4353;SDS011;11018;51.258;6.806;2023-07-29T08:19:13;4.93;;;1.83;;
4353;SDS011;11018;51.258;6.806;2023-07-29T08:21:39;4.47;;;1.50;;
4353;SDS011;11018;51.258;6.806;2023-07-29T08:24:08;4.18;;;1.95;;
4353;SDS011;11018;51.258;6.806;2023-07-29T08:26:33;4.70;;;1.40;;
4353;SDS011;11018;51.258;6.806;2023-07-29T08:28:59;3.90;;;1.67;;
4353;SDS011;11018;51.258;6.806;2023-07-29T08:31:25;1.42;;;1.33;;
4353;SDS011;11018;51.258;6.806;2023-07-29T08:33:50;3.07;;;1.70;;
4353;SDS011;11018;51.258;6.806;2023-07-29T08:36:18;2.30;;;1.38;;
4353;SDS011;11018;51.258;6.806;2023-07-29T08:38:44;2.03;;;1.40;;
4353;SDS011;11018;51.258;6.806;2023-07-29T08:43:49;4.00;;;1.40;;
4353;SDS011;11018;51.258;6.806;2023-07-29T08:46:29;2.73;;;1.40;;
4353;SDS011;11018;51.258;6.806;2023-07-29T08:48:55;5.10;;;1.30;;
4353;SDS011;11018;51.258;6.806;2023-07-29T08:51:21;4.93;;;1.60;;
4353;SDS011;11018;51.258;6.806;2023-07-29T08:53:49;2.15;;;1.27;;
4353;SDS011;11018;51.258;6.806;2023-07-29T08:56:15;2.00;;;1.30;;
4353;SDS011;11018;51.258;6.806;2023-07-29T08:58:41;2.58;;;1.33;;
4353;SDS011;11018;51.258;6.806;2023-07-29T09:01:08;2.10;;;1.50;;
4353;SDS011;11018;51.258;6.806;2023-07-29T09:03:33;2.00;;;1.40;;
4353;SDS011;11018;51.258;6.806;2023-07-29T09:05:59;3.35;;;1.30;;
4353;SDS011;11018;51.258;6.806;2023-07-29T09:08:26;2.80;;;1.40;;
4353;SDS011;11018;51.258;6.806;2023-07-29T09:10:53;2.20;;;1.27;;
4353;SDS011;11018;51.258;6.806;2023-07-29T09:13:19;1.60;;;1.50;;
4353;SDS011;11018;51.258;6.806;2023-07-29T09:15:45;3.10;;;1.70;;
4353;SDS011;11018;51.258;6.806;2023-07-29T09:18:20;1.70;;;1.40;;
4353;SDS011;11018;51.258;6.806;2023-07-29T09:20:46;2.63;;;1.30;;
4353;SDS011;11018;51.258;6.806;2023-07-29T09:23:13;1.70;;;1.33;;
4353;SDS011;11018;51.258;6.806;2023-07-29T09:25:39;3.53;;;1.30;;
4353;SDS011;11018;51.258;6.806;2023-07-29T09:28:09;1.50;;;1.40;;
4353;SDS011;11018;51.258;6.806;2023-07-29T09:30:35;1.33;;;1.23;;
4353;SDS011;11018;51.258;6.806;2023-07-29T09:33:00;3.03;;;1.40;;
4353;SDS011;11018;51.258;6.806;2023-07-29T09:35:27;1.53;;;1.40;;
4353;SDS011;11018;51.258;6.806;2023-07-29T09:37:55;2.00;;;1.30;;
4353;SDS011;11018;51.258;6.806;2023-07-29T09:40:21;2.30;;;1.60;;
4353;SDS011;11018;51.258;6.806;2023-07-29T09:42:53;1.60;;;1.25;;
4353;SDS011;11018;51.258;6.806;2023-07-29T09:45:20;2.90;;;1.40;;
4353;SDS011;11018;51.258;6.806;2023-07-29T09:47:47;2.10;;;1.50;;
4353;SDS011;11018;51.258;6.806;2023-07-29T09:50:13;1.80;;;1.50;;
4353;SDS011;11018;51.258;6.806;2023-07-29T09:52:39;2.40;;;1.70;;
4353;SDS011;11018;51.258;6.806;2023-07-29T09:55:04;5.28;;;1.40;;
4353;SDS011;11018;51.258;6.806;2023-07-29T09:57:31;3.03;;;1.30;;
4353;SDS011;11018;51.258;6.806;2023-07-29T09:59:57;2.20;;;1.58;;
4353;SDS011;11018;51.258;6.806;2023-07-29T10:02:23;3.45;;;1.60;;
4353;SDS011;11018;51.258;6.806;2023-07-29T10:04:50;2.80;;;1.70;;
4353;SDS011;11018;51.258;6.806;2023-07-29T10:07:17;2.08;;;1.73;;
4353;SDS011;11018;51.258;6.806;2023-07-29T10:09:43;4.20;;;1.63;;
4353;SDS011;11018;51.258;6.806;2023-07-29T10:12:10;2.53;;;1.55;;
4353;SDS011;11018;51.258;6.806;2023-07-29T10:14:36;4.90;;;1.30;;
4353;SDS011;11018;51.258;6.806;2023-07-29T10:17:04;4.03;;;1.60;;
4353;SDS011;11018;51.258;6.806;2023-07-29T10:19:30;2.90;;;1.50;;
4353;SDS011;11018;51.258;6.806;2023-07-29T10:21:58;7.10;;;1.50;;
4353;SDS011;11018;51.258;6.806;2023-07-29T10:24:28;1.85;;;1.42;;
4353;SDS011;11018;51.258;6.806;2023-07-29T10:26:59;4.28;;;1.80;;
4353;SDS011;11018;51.258;6.806;2023-07-29T10:29:31;5.40;;;1.77;;
4353;SDS011;11018;51.258;6.806;2023-07-29T10:31:58;2.03;;;1.42;;
4353;SDS011;11018;51.258;6.806;2023-07-29T10:34:28;4.30;;;1.70;;
4353;SDS011;11018;51.258;6.806;2023-07-29T10:36:56;3.50;;;1.40;;
4353;SDS011;11018;51.258;6.806;2023-07-29T10:39:24;2.70;;;1.50;;
4353;SDS011;11018;51.258;6.806;2023-07-29T10:47:13;2.72;;;1.60;;
4353;SDS011;11018;51.258;6.806;2023-07-29T10:49:45;1.80;;;1.50;;
4353;SDS011;11018;51.258;6.806;2023-07-29T10:52:12;4.30;;;1.40;;
4353;SDS011;11018;51.258;6.806;2023-07-29T10:54:53;2.60;;;1.80;;
4353;SDS011;11018;51.258;6.806;2023-07-29T10:57:35;1.60;;;1.50;;
4353;SDS011;11018;51.258;6.806;2023-07-29T11:00:02;1.95;;;1.55;;
4353;SDS011;11018;51.258;6.806;2023-07-29T11:04:55;1.60;;;1.30;;
4353;SDS011;11018;51.258;6.806;2023-07-29T11:07:22;2.30;;;1.30;;
4353;SDS011;11018;51.258;6.806;2023-07-29T11:09:52;2.05;;;1.60;;
4353;SDS011;11018;51.258;6.806;2023-07-29T11:12:41;3.00;;;1.90;;
4353;SDS011;11018;51.258;6.806;2023-07-29T11:17:58;3.40;;;1.70;;
4353;SDS011;11018;51.258;6.806;2023-07-29T11:20:26;3.80;;;1.60;;
4353;SDS011;11018;51.258;6.806;2023-07-29T11:22:55;2.80;;;1.60;;
4353;SDS011;11018;51.258;6.806;2023-07-29T11:25:23;3.08;;;1.65;;
4353;SDS011;11018;51.258;6.806;2023-07-29T11:27:51;3.10;;;1.77;;
4353;SDS011;11018;51.258;6.806;2023-07-29T11:30:17;2.33;;;1.70;;
4353;SDS011;11018;51.258;6.806;2023-07-29T11:32:44;2.30;;;1.73;;
4353;SDS011;11018;51.258;6.806;2023-07-29T11:35:12;6.67;;;1.53;;
4353;SDS011;11018;51.258;6.806;2023-07-29T11:37:40;2.90;;;1.87;;
4353;SDS011;11018;51.258;6.806;2023-07-29T11:40:07;2.40;;;1.50;;
4353;SDS011;11018;51.258;6.806;2023-07-29T11:42:37;3.25;;;1.40;;
4353;SDS011;11018;51.258;6.806;2023-07-29T11:45:03;2.00;;;1.23;;
4353;SDS011;11018;51.258;6.806;2023-07-29T11:47:31;3.97;;;1.90;;
4353;SDS011;11018;51.258;6.806;2023-07-29T11:50:01;3.28;;;1.90;;
4353;SDS011;11018;51.258;6.806;2023-07-29T11:52:27;2.88;;;2.15;;
4353;SDS011;11018;51.258;6.806;2023-07-29T11:54:53;3.00;;;1.85;;
4353;SDS011;11018;51.258;6.806;2023-07-29T11:57:19;2.08;;;1.88;;
4353;SDS011;11018;51.258;6.806;2023-07-29T11:59:45;2.00;;;1.80;;
4353;SDS011;11018;51.258;6.806;2023-07-29T12:02:15;2.10;;;1.73;;
4353;SDS011;11018;51.258;6.806;2023-07-29T12:04:42;3.60;;;2.00;;
4353;SDS011;11018;51.258;6.806;2023-07-29T12:07:09;3.13;;;1.70;;
4353;SDS011;11018;51.258;6.806;2023-07-29T12:09:35;6.25;;;2.00;;
4353;SDS011;11018;51.258;6.806;2023-07-29T12:12:03;3.90;;;1.90;;
4353;SDS011;11018;51.258;6.806;2023-07-29T12:14:29;1.65;;;1.55;;
4353;SDS011;11018;51.258;6.806;2023-07-29T12:16:55;2.47;;;1.90;;
4353;SDS011;11018;51.258;6.806;2023-07-29T12:19:21;4.00;;;1.90;;
4353;SDS011;11018;51.258;6.806;2023-07-29T12:21:47;4.10;;;2.00;;
4353;SDS011;11018;51.258;6.806;2023-07-29T12:24:14;2.33;;;1.85;;
4353;SDS011;11018;51.258;6.806;2023-07-29T12:26:40;4.50;;;2.08;;
4353;SDS011;11018;51.258;6.806;2023-07-29T12:29:13;2.95;;;2.30;;
4353;SDS011;11018;51.258;6.806;2023-07-29T12:31:44;3.58;;;2.00;;
4353;SDS011;11018;51.258;6.806;2023-07-29T12:34:16;6.07;;;1.70;;
4353;SDS011;11018;51.258;6.806;2023-07-29T12:36:47;2.17;;;1.70;;
4353;SDS011;11018;51.258;6.806;2023-07-29T12:39:17;2.78;;;2.00;;
4353;SDS011;11018;51.258;6.806;2023-07-29T12:41:43;2.80;;;1.70;;
4353;SDS011;11018;51.258;6.806;2023-07-29T12:44:08;3.00;;;2.00;;
4353;SDS011;11018;51.258;6.806;2023-07-29T12:46:34;2.30;;;1.70;;
4353;SDS011;11018;51.258;6.806;2023-07-29T12:48:59;2.40;;;2.00;;
4353;SDS011;11018;51.258;6.806;2023-07-29T12:51:25;2.10;;;1.90;;
4353;SDS011;11018;51.258;6.806;2023-07-29T12:53:51;3.22;;;1.80;;
4353;SDS011;11018;51.258;6.806;2023-07-29T12:56:16;3.50;;;2.17;;
4353;SDS011;11018;51.258;6.806;2023-07-29T12:58:42;2.30;;;2.05;;
4353;SDS011;11018;51.258;6.806;2023-07-29T13:01:07;3.10;;;1.80;;
4353;SDS011;11018;51.258;6.806;2023-07-29T13:03:34;4.07;;;2.20;;
4353;SDS011;11018;51.258;6.806;2023-07-29T13:05:59;4.18;;;2.10;;
4353;SDS011;11018;51.258;6.806;2023-07-29T13:08:25;3.43;;;2.10;;
4353;SDS011;11018;51.258;6.806;2023-07-29T13:10:50;4.70;;;1.90;;
4353;SDS011;11018;51.258;6.806;2023-07-29T13:13:16;2.20;;;1.80;;
4353;SDS011;11018;51.258;6.806;2023-07-29T13:15:41;3.40;;;1.97;;
4353;SDS011;11018;51.258;6.806;2023-07-29T13:18:07;2.20;;;2.00;;
4353;SDS011;11018;51.258;6.806;2023-07-29T13:20:33;3.30;;;2.20;;
4353;SDS011;11018;51.258;6.806;2023-07-29T13:22:59;2.88;;;1.90;;
4353;SDS011;11018;51.258;6.806;2023-07-29T13:25:25;2.13;;;1.80;;
4353;SDS011;11018;51.258;6.806;2023-07-29T13:27:50;3.90;;;2.10;;
4353;SDS011;11018;51.258;6.806;2023-07-29T13:30:16;2.50;;;2.00;;
4353;SDS011;11018;51.258;6.806;2023-07-29T13:32:41;5.90;;;2.60;;
4353;SDS011;11018;51.258;6.806;2023-07-29T13:35:07;5.43;;;2.80;;
4353;SDS011;11018;51.258;6.806;2023-07-29T13:37:33;3.10;;;2.40;;
4353;SDS011;11018;51.258;6.806;2023-07-29T13:39:58;4.75;;;2.50;;
4353;SDS011;11018;51.258;6.806;2023-07-29T13:42:24;4.43;;;2.20;;
4353;SDS011;11018;51.258;6.806;2023-07-29T13:44:49;4.20;;;2.50;;
4353;SDS011;11018;51.258;6.806;2023-07-29T13:47:15;3.73;;;2.47;;
4353;SDS011;11018;51.258;6.806;2023-07-29T13:49:41;2.55;;;2.20;;
4353;SDS011;11018;51.258;6.806;2023-07-29T13:52:06;3.47;;;2.47;;
4353;SDS011;11018;51.258;6.806;2023-07-29T13:54:32;6.57;;;2.90;;
4353;SDS011;11018;51.258;6.806;2023-07-29T13:56:57;4.28;;;2.70;;
4353;SDS011;11018;51.258;6.806;2023-07-29T13:59:23;6.43;;;3.60;;
4353;SDS011;11018;51.258;6.806;2023-07-29T14:01:49;4.15;;;2.55;;
4353;SDS011;11018;51.258;6.806;2023-07-29T14:04:14;4.53;;;2.80;;
4353;SDS011;11018;51.258;6.806;2023-07-29T14:06:40;3.00;;;2.00;;
4353;SDS011;11018;51.258;6.806;2023-07-29T14:09:06;4.30;;;2.13;;
4353;SDS011;11018;51.258;6.806;2023-07-29T14:11:31;3.10;;;2.03;;
4353;SDS011;11018;51.258;6.806;2023-07-29T14:13:57;6.33;;;2.50;;
4353;SDS011;11018;51.258;6.806;2023-07-29T14:16:23;3.65;;;2.60;;
4353;SDS011;11018;51.258;6.806;2023-07-29T14:18:48;6.50;;;2.30;;
4353;SDS011;11018;51.258;6.806;2023-07-29T14:21:14;3.33;;;2.63;;
4353;SDS011;11018;51.258;6.806;2023-07-29T14:23:39;2.90;;;2.20;;
4353;SDS011;11018;51.258;6.806;2023-07-29T14:26:05;3.10;;;2.27;;
4353;SDS011;11018;51.258;6.806;2023-07-29T14:28:30;3.50;;;1.80;;
4353;SDS011;11018;51.258;6.806;2023-07-29T14:30:56;5.87;;;2.70;;
4353;SDS011;11018;51.258;6.806;2023-07-29T14:33:22;4.28;;;2.40;;
4353;SDS011;11018;51.258;6.806;2023-07-29T14:35:47;4.70;;;2.40;;
4353;SDS011;11018;51.258;6.806;2023-07-29T14:38:13;6.22;;;2.53;;
4353;SDS011;11018;51.258;6.806;2023-07-29T14:40:38;4.17;;;2.40;;
4353;SDS011;11018;51.258;6.806;2023-07-29T14:43:04;4.73;;;1.77;;
4353;SDS011;11018;51.258;6.806;2023-07-29T14:45:29;2.30;;;1.95;;
4353;SDS011;11018;51.258;6.806;2023-07-29T14:47:55;3.60;;;2.10;;
4353;SDS011;11018;51.258;6.806;2023-07-29T14:50:20;3.75;;;2.10;;
4353;SDS011;11018;51.258;6.806;2023-07-29T14:52:46;3.17;;;2.20;;
4353;SDS011;11018;51.258;6.806;2023-07-29T14:55:12;2.20;;;1.90;;
4353;SDS011;11018;51.258;6.806;2023-07-29T14:57:37;2.30;;;2.00;;
4353;SDS011;11018;51.258;6.806;2023-07-29T15:00:03;3.60;;;1.90;;
4353;SDS011;11018;51.258;6.806;2023-07-29T15:02:29;3.70;;;1.90;;
4353;SDS011;11018;51.258;6.806;2023-07-29T15:04:54;1.60;;;1.40;;
4353;SDS011;11018;51.258;6.806;2023-07-29T15:07:20;4.00;;;2.03;;
4353;SDS011;11018;51.258;6.806;2023-07-29T15:09:45;4.10;;;1.50;;
4353;SDS011;11018;51.258;6.806;2023-07-29T15:12:11;1.70;;;1.20;;
4353;SDS011;11018;51.258;6.806;2023-07-29T15:14:37;2.30;;;1.60;;